sensor_id;sensor_type;location;lat;lon;timestamp;P1;durP1;ratioP1;P2;durP2;ratioP2
69170;SDS011;56279;47.902;12.308;2022-07-24T00:01:50;8.93;;;5.10;;
69170;SDS011;56279;47.902;12.308;2022-07-24T00:03:58;8.65;;;5.40;;
69170;SDS011;56279;47.902;12.308;2022-07-24T00:06:07;8.48;;;5.95;;
69170;SDS011;56279;47.902;12.308;2022-07-24T00:08:14;10.07;;;6.07;;
69170;SDS011;56279;47.902;12.308;2022-07-24T00:10:18;10.23;;;5.60;;
69170;SDS011;56279;47.902;12.308;2022-07-24T00:12:22;8.77;;;5.43;;
69170;SDS011;56279;47.902;12.308;2022-07-24T00:14:35;9.73;;;5.45;;
69170;SDS011;56279;47.902;12.308;2022-07-24T00:16:37;10.02;;;5.88;;
69170;SDS011;56279;47.902;12.308;2022-07-24T00:18:42;8.45;;;5.93;;
69170;SDS011;56279;47.902;12.308;2022-07-24T00:20:49;10.27;;;5.97;;
69170;SDS011;56279;47.902;12.308;2022-07-24T00:22:56;8.83;;;5.80;;
69170;SDS011;56279;47.902;12.308;2022-07-24T00:24:59;10.15;;;6.90;;
69170;SDS011;56279;47.902;12.308;2022-07-24T00:27:00;9.27;;;5.85;;
69170;SDS011;56279;47.902;12.308;2022-07-24T00:29:04;11.45;;;6.00;;
69170;SDS011;56279;47.902;12.308;2022-07-24T00:31:09;8.38;;;5.82;;
69170;SDS011;56279;47.902;12.308;2022-07-24T00:33:15;9.27;;;6.10;;
69170;SDS011;56279;47.902;12.308;2022-07-24T00:35:17;10.52;;;6.57;;
69170;SDS011;56279;47.902;12.308;2022-07-24T00:37:19;11.23;;;5.95;;
69170;SDS011;56279;47.902;12.308;2022-07-24T00:39:20;8.57;;;5.40;;
69170;SDS011;56279;47.902;12.308;2022-07-24T00:41:25;10.02;;;6.25;;
69170;SDS011;56279;47.902;12.308;2022-07-24T00:43:30;9.40;;;5.80;;
69170;SDS011;56279;47.902;12.308;2022-07-24T00:45:34;9.55;;;5.97;;
69170;SDS011;56279;47.902;12.308;2022-07-24T00:47:36;9.73;;;5.82;;
69170;SDS011;56279;47.902;12.308;2022-07-24T00:49:41;8.90;;;5.82;;
69170;SDS011;56279;47.902;12.308;2022-07-24T00:51:55;8.75;;;5.53;;
69170;SDS011;56279;47.902;12.308;2022-07-24T00:53:59;8.83;;;5.73;;
69170;SDS011;56279;47.902;12.308;2022-07-24T00:56:03;10.27;;;6.15;;
69170;SDS011;56279;47.902;12.308;2022-07-24T00:58:06;11.18;;;6.03;;
69170;SDS011;56279;47.902;12.308;2022-07-24T01:00:10;8.48;;;5.57;;
69170;SDS011;56279;47.902;12.308;2022-07-24T01:02:12;9.18;;;6.00;;
69170;SDS011;56279;47.902;12.308;2022-07-24T01:04:17;9.83;;;6.20;;
69170;SDS011;56279;47.902;12.308;2022-07-24T01:06:19;11.10;;;6.20;;
69170;SDS011;56279;47.902;12.308;2022-07-24T01:08:23;12.65;;;6.45;;
69170;SDS011;56279;47.902;12.308;2022-07-24T01:10:25;9.07;;;5.90;;
69170;SDS011;56279;47.902;12.308;2022-07-24T01:12:27;10.20;;;5.55;;
69170;SDS011;56279;47.902;12.308;2022-07-24T01:14:31;10.13;;;6.17;;
69170;SDS011;56279;47.902;12.308;2022-07-24T01:16:34;9.45;;;6.05;;
69170;SDS011;56279;47.902;12.308;2022-07-24T01:18:39;11.50;;;6.63;;
69170;SDS011;56279;47.902;12.308;2022-07-24T01:20:47;8.70;;;5.82;;
69170;SDS011;56279;47.902;12.308;2022-07-24T01:22:51;10.13;;;5.78;;
69170;SDS011;56279;47.902;12.308;2022-07-24T01:24:53;10.63;;;6.23;;
69170;SDS011;56279;47.902;12.308;2022-07-24T01:27:03;9.23;;;5.72;;
69170;SDS011;56279;47.902;12.308;2022-07-24T01:29:08;10.30;;;5.88;;
69170;SDS011;56279;47.902;12.308;2022-07-24T01:31:10;9.65;;;6.25;;
69170;SDS011;56279;47.902;12.308;2022-07-24T01:33:14;11.90;;;6.72;;
69170;SDS011;56279;47.902;12.308;2022-07-24T01:35:20;10.10;;;6.83;;
69170;SDS011;56279;47.902;12.308;2022-07-24T01:37:28;9.07;;;6.22;;
69170;SDS011;56279;47.902;12.308;2022-07-24T01:39:33;10.82;;;6.00;;
69170;SDS011;56279;47.902;12.308;2022-07-24T01:41:35;8.65;;;5.90;;
69170;SDS011;56279;47.902;12.308;2022-07-24T01:43:39;10.05;;;6.05;;
69170;SDS011;56279;47.902;12.308;2022-07-24T01:45:42;10.30;;;6.27;;
69170;SDS011;56279;47.902;12.308;2022-07-24T01:47:44;9.05;;;5.57;;
69170;SDS011;56279;47.902;12.308;2022-07-24T01:49:46;11.45;;;5.97;;
69170;SDS011;56279;47.902;12.308;2022-07-24T01:51:51;10.20;;;5.88;;
69170;SDS011;56279;47.902;12.308;2022-07-24T01:53:55;8.02;;;5.43;;
69170;SDS011;56279;47.902;12.308;2022-07-24T01:56:00;10.27;;;6.37;;
69170;SDS011;56279;47.902;12.308;2022-07-24T01:58:01;8.38;;;5.65;;
69170;SDS011;56279;47.902;12.308;2022-07-24T02:00:08;9.55;;;6.20;;
69170;SDS011;56279;47.902;12.308;2022-07-24T02:02:16;10.60;;;6.43;;
69170;SDS011;56279;47.902;12.308;2022-07-24T02:04:21;8.93;;;5.72;;
69170;SDS011;56279;47.902;12.308;2022-07-24T02:06:22;11.63;;;6.00;;
69170;SDS011;56279;47.902;12.308;2022-07-24T02:08:24;9.10;;;6.20;;
69170;SDS011;56279;47.902;12.308;2022-07-24T02:10:27;10.40;;;6.15;;
69170;SDS011;56279;47.902;12.308;2022-07-24T02:12:29;8.77;;;5.82;;
69170;SDS011;56279;47.902;12.308;2022-07-24T02:14:33;9.70;;;5.72;;
69170;SDS011;56279;47.902;12.308;2022-07-24T02:16:34;8.23;;;5.60;;
69170;SDS011;56279;47.902;12.308;2022-07-24T02:21:30;10.25;;;6.13;;
69170;SDS011;56279;47.902;12.308;2022-07-24T08:39:50;10.60;;;7.35;;
69170;SDS011;56279;47.902;12.308;2022-07-24T08:41:52;10.88;;;7.35;;
69170;SDS011;56279;47.902;12.308;2022-07-24T08:43:58;10.38;;;7.05;;
69170;SDS011;56279;47.902;12.308;2022-07-24T08:46:00;10.38;;;7.10;;
69170;SDS011;56279;47.902;12.308;2022-07-24T08:51:41;10.77;;;6.93;;
69170;SDS011;56279;47.902;12.308;2022-07-24T08:54:31;11.13;;;7.25;;
69170;SDS011;56279;47.902;12.308;2022-07-24T08:56:48;9.50;;;6.43;;
69170;SDS011;56279;47.902;12.308;2022-07-24T08:59:57;11.15;;;6.97;;
69170;SDS011;56279;47.902;12.308;2022-07-24T09:04:37;12.60;;;7.50;;
69170;SDS011;56279;47.902;12.308;2022-07-24T09:07:07;10.50;;;6.65;;
69170;SDS011;56279;47.902;12.308;2022-07-24T09:09:11;11.77;;;7.70;;
69170;SDS011;56279;47.902;12.308;2022-07-24T09:11:13;11.55;;;7.03;;
69170;SDS011;56279;47.902;12.308;2022-07-24T09:13:24;11.00;;;6.80;;
69170;SDS011;56279;47.902;12.308;2022-07-24T09:15:26;10.70;;;6.60;;
69170;SDS011;56279;47.902;12.308;2022-07-24T09:17:29;10.50;;;6.55;;
69170;SDS011;56279;47.902;12.308;2022-07-24T09:19:51;10.23;;;6.72;;
69170;SDS011;56279;47.902;12.308;2022-07-24T09:24:48;9.63;;;6.33;;
69170;SDS011;56279;47.902;12.308;2022-07-24T09:27:06;10.63;;;7.03;;
69170;SDS011;56279;47.902;12.308;2022-07-24T09:29:15;12.02;;;7.70;;
69170;SDS011;56279;47.902;12.308;2022-07-24T09:31:38;9.80;;;7.00;;
69170;SDS011;56279;47.902;12.308;2022-07-24T09:37:35;11.03;;;7.10;;
69170;SDS011;56279;47.902;12.308;2022-07-24T09:39:40;11.65;;;6.53;;
69170;SDS011;56279;47.902;12.308;2022-07-24T09:41:50;10.45;;;7.35;;
69170;SDS011;56279;47.902;12.308;2022-07-24T09:43:57;9.63;;;6.65;;
69170;SDS011;56279;47.902;12.308;2022-07-24T09:46:03;9.93;;;6.72;;
69170;SDS011;56279;47.902;12.308;2022-07-24T09:48:14;11.23;;;6.77;;
69170;SDS011;56279;47.902;12.308;2022-07-24T09:50:26;10.05;;;6.57;;
69170;SDS011;56279;47.902;12.308;2022-07-24T09:53:58;13.63;;;6.78;;
69170;SDS011;56279;47.902;12.308;2022-07-24T09:58:47;8.95;;;6.53;;
69170;SDS011;56279;47.902;12.308;2022-07-24T10:00:56;9.27;;;6.50;;
69170;SDS011;56279;47.902;12.308;2022-07-24T10:03:00;10.13;;;6.43;;
69170;SDS011;56279;47.902;12.308;2022-07-24T10:05:12;10.32;;;6.90;;
69170;SDS011;56279;47.902;12.308;2022-07-24T10:09:52;10.38;;;6.25;;
69170;SDS011;56279;47.902;12.308;2022-07-24T10:11:59;9.43;;;6.20;;
69170;SDS011;56279;47.902;12.308;2022-07-24T10:14:04;9.25;;;6.47;;
69170;SDS011;56279;47.902;12.308;2022-07-24T10:16:15;9.93;;;6.03;;
69170;SDS011;56279;47.902;12.308;2022-07-24T10:18:53;11.77;;;6.47;;
69170;SDS011;56279;47.902;12.308;2022-07-24T10:21:05;8.57;;;6.00;;
69170;SDS011;56279;47.902;12.308;2022-07-24T10:25:25;8.57;;;5.90;;
69170;SDS011;56279;47.902;12.308;2022-07-24T10:27:30;9.40;;;6.43;;
69170;SDS011;56279;47.902;12.308;2022-07-24T10:29:33;10.43;;;6.35;;
69170;SDS011;56279;47.902;12.308;2022-07-24T10:31:39;9.57;;;6.10;;
69170;SDS011;56279;47.902;12.308;2022-07-24T10:34:24;9.10;;;5.97;;
69170;SDS011;56279;47.902;12.308;2022-07-24T10:36:30;9.10;;;5.82;;
69170;SDS011;56279;47.902;12.308;2022-07-24T10:38:37;8.68;;;5.97;;
69170;SDS011;56279;47.902;12.308;2022-07-24T10:40:48;9.52;;;5.97;;
69170;SDS011;56279;47.902;12.308;2022-07-24T10:45:18;11.13;;;6.53;;
69170;SDS011;56279;47.902;12.308;2022-07-24T10:51:57;8.25;;;5.90;;
69170;SDS011;56279;47.902;12.308;2022-07-24T11:03:16;8.30;;;5.80;;
69170;SDS011;56279;47.902;12.308;2022-07-24T11:05:37;8.80;;;6.18;;
69170;SDS011;56279;47.902;12.308;2022-07-24T11:08:03;9.18;;;5.93;;
69170;SDS011;56279;47.902;12.308;2022-07-24T11:10:12;9.93;;;6.28;;
69170;SDS011;56279;47.902;12.308;2022-07-24T11:12:28;9.60;;;6.20;;
69170;SDS011;56279;47.902;12.308;2022-07-24T11:14:47;8.98;;;6.50;;
69170;SDS011;56279;47.902;12.308;2022-07-24T11:16:53;9.35;;;7.18;;
69170;SDS011;56279;47.902;12.308;2022-07-24T11:22:09;8.73;;;6.18;;
69170;SDS011;56279;47.902;12.308;2022-07-24T11:30:23;9.73;;;6.68;;
69170;SDS011;56279;47.902;12.308;2022-07-24T11:33:01;8.88;;;6.07;;
69170;SDS011;56279;47.902;12.308;2022-07-24T11:35:43;12.00;;;6.28;;
69170;SDS011;56279;47.902;12.308;2022-07-24T11:41:05;8.38;;;5.95;;
69170;SDS011;56279;47.902;12.308;2022-07-24T12:14:46;8.60;;;5.15;;
69170;SDS011;56279;47.902;12.308;2022-07-24T12:16:56;9.65;;;5.45;;
